sensor_id;sensor_type;location;lat;lon;timestamp;pressure;altitude;pressure_sealevel;temperature;humidity
16664;BME280;8445;51.270;9.434;2023-02-11T00:03:44;101218.13;;;0.42;70.21
16664;BME280;8445;51.270;9.434;2023-02-11T00:06:10;101206.81;;;0.42;70.84
16664;BME280;8445;51.270;9.434;2023-02-11T00:08:36;101205.97;;;0.41;70.96
16664;BME280;8445;51.270;9.434;2023-02-11T00:11:02;101209.44;;;0.40;70.74
16664;BME280;8445;51.270;9.434;2023-02-11T00:13:27;101210.34;;;0.36;71.37
16664;BME280;8445;51.270;9.434;2023-02-11T00:15:53;101203.34;;;0.44;71.05
16664;BME280;8445;51.270;9.434;2023-02-11T00:18:19;101200.72;;;0.46;72.06
16664;BME280;8445;51.270;9.434;2023-02-11T00:20:45;101205.06;;;0.50;71.54
16664;BME280;8445;51.270;9.434;2023-02-11T00:23:12;101185.91;;;0.57;72.34
16664;BME280;8445;51.270;9.434;2023-02-11T00:25:43;101184.16;;;0.61;71.73
16664;BME280;8445;51.270;9.434;2023-02-11T00:28:10;101176.31;;;0.67;71.48
16664;BME280;8445;51.270;9.434;2023-02-11T00:30:38;101177.16;;;0.72;72.63
16664;BME280;8445;51.270;9.434;2023-02-11T00:33:04;101177.13;;;0.80;71.92
16664;BME280;8445;51.270;9.434;2023-02-11T00:35:31;101157.09;;;0.85;71.42
16664;BME280;8445;51.270;9.434;2023-02-11T00:37:56;101164.03;;;0.88;71.18
16664;BME280;8445;51.270;9.434;2023-02-11T00:40:22;101165.72;;;0.94;71.62
16664;BME280;8445;51.270;9.434;2023-02-11T00:42:47;101163.09;;;0.97;71.44
16664;BME280;8445;51.270;9.434;2023-02-11T00:45:13;101150.88;;;1.05;72.30
16664;BME280;8445;51.270;9.434;2023-02-11T00:47:38;101158.63;;;1.14;72.00
16664;BME280;8445;51.270;9.434;2023-02-11T00:50:04;101160.25;;;1.23;72.27
16664;BME280;8445;51.270;9.434;2023-02-11T00:52:31;101151.50;;;1.33;72.61
16664;BME280;8445;51.270;9.434;2023-02-11T00:54:56;101135.81;;;1.38;73.24
16664;BME280;8445;51.270;9.434;2023-02-11T00:57:22;101139.97;;;1.55;73.45
16664;BME280;8445;51.270;9.434;2023-02-11T00:59:48;101126.84;;;1.64;72.48
16664;BME280;8445;51.270;9.434;2023-02-11T01:02:15;101127.63;;;1.74;72.37
16664;BME280;8445;51.270;9.434;2023-02-11T01:04:41;101133.56;;;1.85;72.85
16664;BME280;8445;51.270;9.434;2023-02-11T01:07:07;101123.94;;;1.90;72.65
16664;BME280;8445;51.270;9.434;2023-02-11T01:09:33;101117.81;;;1.95;72.72
16664;BME280;8445;51.270;9.434;2023-02-11T01:11:58;101128.22;;;1.99;72.90
16664;BME280;8445;51.270;9.434;2023-02-11T01:14:24;101134.16;;;2.09;72.19
16664;BME280;8445;51.270;9.434;2023-02-11T01:16:50;101129.75;;;2.14;72.63
16664;BME280;8445;51.270;9.434;2023-02-11T01:19:15;101134.97;;;2.14;71.71
16664;BME280;8445;51.270;9.434;2023-02-11T01:21:43;101126.25;;;2.15;72.35
16664;BME280;8445;51.270;9.434;2023-02-11T01:24:09;101139.31;;;2.14;72.17
16664;BME280;8445;51.270;9.434;2023-02-11T01:26:34;101141.06;;;2.13;72.69
16664;BME280;8445;51.270;9.434;2023-02-11T01:29:00;101154.06;;;2.19;72.24
16664;BME280;8445;51.270;9.434;2023-02-11T01:31:26;101166.22;;;2.20;71.97
16664;BME280;8445;51.270;9.434;2023-02-11T01:33:51;101160.16;;;2.17;72.29
16664;BME280;8445;51.270;9.434;2023-02-11T01:36:17;101159.38;;;2.10;72.19
16664;BME280;8445;51.270;9.434;2023-02-11T01:38:42;101156.84;;;2.04;72.35
16664;BME280;8445;51.270;9.434;2023-02-11T01:41:11;101163.88;;;2.00;72.49
16664;BME280;8445;51.270;9.434;2023-02-11T01:43:47;101159.47;;;2.04;72.53
16664;BME280;8445;51.270;9.434;2023-02-11T01:46:35;101173.34;;;2.06;73.24
16664;BME280;8445;51.270;9.434;2023-02-11T01:49:08;101160.31;;;2.06;72.31
16664;BME280;8445;51.270;9.434;2023-02-11T01:51:49;101167.28;;;2.05;74.22
16664;BME280;8445;51.270;9.434;2023-02-11T01:54:21;101169.03;;;2.05;73.11
16664;BME280;8445;51.270;9.434;2023-02-11T01:57:06;101171.63;;;2.05;72.96
16664;BME280;8445;51.270;9.434;2023-02-11T02:02:33;101156.03;;;1.99;72.19
16664;BME280;8445;51.270;9.434;2023-02-11T02:05:13;101150.06;;;1.89;72.21
16664;BME280;8445;51.270;9.434;2023-02-11T02:08:12;101148.41;;;1.80;72.60
16664;BME280;8445;51.270;9.434;2023-02-11T02:10:42;101136.41;;;1.67;71.99
16664;BME280;8445;51.270;9.434;2023-02-11T02:13:09;101140.84;;;1.58;72.01
16664;BME280;8445;51.270;9.434;2023-02-11T02:15:40;101140.88;;;1.55;72.73
16664;BME280;8445;51.270;9.434;2023-02-11T02:24:21;101119.00;;;1.69;73.26
16664;BME280;8445;51.270;9.434;2023-02-11T02:30:15;101120.66;;;1.76;73.85
16664;BME280;8445;51.270;9.434;2023-02-11T02:35:28;101102.31;;;1.79;73.74
16664;BME280;8445;51.270;9.434;2023-02-11T02:40:47;101104.84;;;1.87;74.47
16664;BME280;8445;51.270;9.434;2023-02-11T02:43:14;101099.59;;;1.88;73.93
16664;BME280;8445;51.270;9.434;2023-02-11T02:45:41;101097.03;;;1.87;74.41
16664;BME280;8445;51.270;9.434;2023-02-11T02:48:06;101096.97;;;1.91;73.69
16664;BME280;8445;51.270;9.434;2023-02-11T02:50:36;101110.00;;;1.91;73.99
16664;BME280;8445;51.270;9.434;2023-02-11T02:55:48;101115.03;;;2.07;74.20
16664;BME280;8445;51.270;9.434;2023-02-11T03:04:33;101103.31;;;2.36;73.77
16664;BME280;8445;51.270;9.434;2023-02-11T03:06:53;101104.97;;;2.43;73.34
16664;BME280;8445;51.270;9.434;2023-02-11T03:11:49;101097.13;;;2.45;73.66
16664;BME280;8445;51.270;9.434;2023-02-11T03:14:17;101088.41;;;2.46;73.32
16664;BME280;8445;51.270;9.434;2023-02-11T03:16:44;101087.47;;;2.48;73.15
16664;BME280;8445;51.270;9.434;2023-02-11T03:19:14;101084.00;;;2.49;73.90
16664;BME280;8445;51.270;9.434;2023-02-11T03:21:43;101067.50;;;2.46;72.55
16664;BME280;8445;51.270;9.434;2023-02-11T03:24:27;101057.94;;;2.45;73.63
16664;BME280;8445;51.270;9.434;2023-02-11T03:27:01;101059.69;;;2.44;73.34
16664;BME280;8445;51.270;9.434;2023-02-11T03:32:17;101070.25;;;2.36;73.51
16664;BME280;8445;51.270;9.434;2023-02-11T03:34:54;101075.53;;;2.35;73.26
16664;BME280;8445;51.270;9.434;2023-02-11T03:37:37;101063.31;;;2.35;76.04
16664;BME280;8445;51.270;9.434;2023-02-11T03:40:15;101068.44;;;2.40;73.75
16664;BME280;8445;51.270;9.434;2023-02-11T03:42:48;101070.09;;;2.47;74.02
16664;BME280;8445;51.270;9.434;2023-02-11T03:45:17;101055.16;;;2.56;74.15
16664;BME280;8445;51.270;9.434;2023-02-11T03:47:51;101049.78;;;2.65;74.16
16664;BME280;8445;51.270;9.434;2023-02-11T03:50:20;101054.03;;;2.72;73.48
16664;BME280;8445;51.270;9.434;2023-02-11T03:52:48;101055.66;;;2.78;74.40
16664;BME280;8445;51.270;9.434;2023-02-11T03:55:16;101058.22;;;2.83;73.92
16664;BME280;8445;51.270;9.434;2023-02-11T03:57:43;101067.78;;;2.84;74.03
16664;BME280;8445;51.270;9.434;2023-02-11T04:00:09;101062.47;;;2.88;73.36
16664;BME280;8445;51.270;9.434;2023-02-11T04:02:39;101051.97;;;2.93;73.68
16664;BME280;8445;51.270;9.434;2023-02-11T04:05:06;101041.38;;;2.99;74.00
16664;BME280;8445;51.270;9.434;2023-02-11T04:07:33;101036.09;;;3.02;73.35
16664;BME280;8445;51.270;9.434;2023-02-11T04:09:58;101048.22;;;3.06;73.63
16664;BME280;8445;51.270;9.434;2023-02-11T04:12:24;101047.31;;;3.09;73.73
16664;BME280;8445;51.270;9.434;2023-02-11T04:14:50;101044.66;;;3.10;73.95
16664;BME280;8445;51.270;9.434;2023-02-11T04:17:15;101049.84;;;3.14;73.68
16664;BME280;8445;51.270;9.434;2023-02-11T04:19:41;101052.44;;;3.15;73.59
16664;BME280;8445;51.270;9.434;2023-02-11T04:22:06;101055.94;;;3.13;73.61
16664;BME280;8445;51.270;9.434;2023-02-11T04:24:32;101055.06;;;3.14;74.02
16664;BME280;8445;51.270;9.434;2023-02-11T04:26:58;101059.41;;;3.15;73.55
16664;BME280;8445;51.270;9.434;2023-02-11T04:29:23;101068.09;;;3.17;73.42
16664;BME280;8445;51.270;9.434;2023-02-11T04:31:49;101060.25;;;3.17;74.34
16664;BME280;8445;51.270;9.434;2023-02-11T04:34:15;101048.00;;;3.20;74.31
16664;BME280;8445;51.270;9.434;2023-02-11T04:36:40;101049.63;;;3.24;73.41
16664;BME280;8445;51.270;9.434;2023-02-11T04:39:06;101037.38;;;3.28;73.84
16664;BME280;8445;51.270;9.434;2023-02-11T04:41:31;101031.22;;;3.31;73.91
16664;BME280;8445;51.270;9.434;2023-02-11T04:43:57;101026.78;;;3.34;73.64
16664;BME280;8445;51.270;9.434;2023-02-11T04:46:22;101044.16;;;3.38;73.67
16664;BME280;8445;51.270;9.434;2023-02-11T04:48:48;101039.75;;;3.40;73.53
16664;BME280;8445;51.270;9.434;2023-02-11T04:51:13;101040.66;;;3.39;73.34
16664;BME280;8445;51.270;9.434;2023-02-11T04:53:39;101041.47;;;3.41;73.84
16664;BME280;8445;51.270;9.434;2023-02-11T04:56:04;101043.16;;;3.44;73.32
16664;BME280;8445;51.270;9.434;2023-02-11T04:58:30;101047.56;;;3.44;73.28
16664;BME280;8445;51.270;9.434;2023-02-11T05:01:04;101045.75;;;3.46;73.55
16664;BME280;8445;51.270;9.434;2023-02-11T05:03:29;101050.13;;;3.45;73.46
16664;BME280;8445;51.270;9.434;2023-02-11T05:05:55;101052.72;;;3.47;72.99
16664;BME280;8445;51.270;9.434;2023-02-11T05:08:20;101051.00;;;3.44;73.04
16664;BME280;8445;51.270;9.434;2023-02-11T05:10:46;101056.28;;;3.43;73.26
16664;BME280;8445;51.270;9.434;2023-02-11T05:13:12;101061.47;;;3.46;73.51
16664;BME280;8445;51.270;9.434;2023-02-11T05:15:37;101058.00;;;3.44;73.34
16664;BME280;8445;51.270;9.434;2023-02-11T05:18:03;101044.94;;;3.44;73.91
16664;BME280;8445;51.270;9.434;2023-02-11T05:20:28;101047.56;;;3.44;73.26
16664;BME280;8445;51.270;9.434;2023-02-11T05:22:54;101037.94;;;3.44;73.60
16664;BME280;8445;51.270;9.434;2023-02-11T05:25:19;101034.34;;;3.50;73.79
16664;BME280;8445;51.270;9.434;2023-02-11T05:27:45;101024.72;;;3.50;73.20
16664;BME280;8445;51.270;9.434;2023-02-11T05:30:10;101034.38;;;3.48;73.78
16664;BME280;8445;51.270;9.434;2023-02-11T05:32:36;101025.69;;;3.46;74.01
16664;BME280;8445;51.270;9.434;2023-02-11T05:35:02;101024.84;;;3.46;73.75
16664;BME280;8445;51.270;9.434;2023-02-11T05:37:27;101028.28;;;3.48;73.77
16664;BME280;8445;51.270;9.434;2023-02-11T05:39:52;101028.22;;;3.51;73.54
16664;BME280;8445;51.270;9.434;2023-02-11T05:42:18;101032.56;;;3.50;73.51
16664;BME280;8445;51.270;9.434;2023-02-11T05:44:43;101037.78;;;3.52;73.34
16664;BME280;8445;51.270;9.434;2023-02-11T05:47:09;101036.09;;;3.49;73.42
16664;BME280;8445;51.270;9.434;2023-02-11T05:49:34;101049.16;;;3.49;73.91
16664;BME280;8445;51.270;9.434;2023-02-11T05:52:00;101036.97;;;3.50;74.10
16664;BME280;8445;51.270;9.434;2023-02-11T05:54:25;101050.03;;;3.50;74.02
16664;BME280;8445;51.270;9.434;2023-02-11T05:56:51;101051.78;;;3.51;74.13
16664;BME280;8445;51.270;9.434;2023-02-11T05:59:16;101061.34;;;3.52;74.13
16664;BME280;8445;51.270;9.434;2023-02-11T06:01:42;101058.69;;;3.53;73.99
16664;BME280;8445;51.270;9.434;2023-02-11T06:04:07;101064.69;;;3.57;73.89
16664;BME280;8445;51.270;9.434;2023-02-11T06:06:33;101063.03;;;3.54;73.85
16664;BME280;8445;51.270;9.434;2023-02-11T06:08:58;101058.63;;;3.56;73.55
16664;BME280;8445;51.270;9.434;2023-02-11T06:11:24;101057.69;;;3.59;73.69
16664;BME280;8445;51.270;9.434;2023-02-11T06:13:49;101058.56;;;3.58;73.56
16664;BME280;8445;51.270;9.434;2023-02-11T06:16:15;101044.59;;;3.61;73.36
16664;BME280;8445;51.270;9.434;2023-02-11T06:18:41;101052.38;;;3.64;73.57
16664;BME280;8445;51.270;9.434;2023-02-11T06:21:08;101047.09;;;3.65;73.29
16664;BME280;8445;51.270;9.434;2023-02-11T06:23:34;101051.44;;;3.68;73.13
16664;BME280;8445;51.270;9.434;2023-02-11T06:26:04;101062.72;;;3.70;73.30
16664;BME280;8445;51.270;9.434;2023-02-11T06:28:30;101051.38;;;3.71;72.88
16664;BME280;8445;51.270;9.434;2023-02-11T06:30:56;101056.59;;;3.71;73.69
16664;BME280;8445;51.270;9.434;2023-02-11T06:33:21;101048.69;;;3.73;72.94
16664;BME280;8445;51.270;9.434;2023-02-11T06:35:47;101046.91;;;3.75;73.14
16664;BME280;8445;51.270;9.434;2023-02-11T06:38:12;101046.97;;;3.73;73.29
16664;BME280;8445;51.270;9.434;2023-02-11T06:40:38;101048.69;;;3.73;73.28
16664;BME280;8445;51.270;9.434;2023-02-11T06:43:04;101050.50;;;3.70;73.59
16664;BME280;8445;51.270;9.434;2023-02-11T06:45:30;101052.22;;;3.71;73.72
16664;BME280;8445;51.270;9.434;2023-02-11T06:47:55;101055.72;;;3.72;73.85
16664;BME280;8445;51.270;9.434;2023-02-11T06:50:21;101057.38;;;3.75;73.47
16664;BME280;8445;51.270;9.434;2023-02-11T06:52:46;101052.16;;;3.75;73.38
16664;BME280;8445;51.270;9.434;2023-02-11T06:55:12;101058.19;;;3.78;73.71
16664;BME280;8445;51.270;9.434;2023-02-11T06:57:38;101066.84;;;3.82;73.06
16664;BME280;8445;51.270;9.434;2023-02-11T07:00:04;101070.34;;;3.82;73.45
16664;BME280;8445;51.270;9.434;2023-02-11T07:02:29;101064.16;;;3.85;73.19
16664;BME280;8445;51.270;9.434;2023-02-11T07:04:55;101058.03;;;3.84;73.32
16664;BME280;8445;51.270;9.434;2023-02-11T07:07:20;101057.06;;;3.90;73.79
16664;BME280;8445;51.270;9.434;2023-02-11T07:09:46;101063.97;;;3.94;73.74
16664;BME280;8445;51.270;9.434;2023-02-11T07:12:11;101062.19;;;3.96;73.52
16664;BME280;8445;51.270;9.434;2023-02-11T07:14:37;101066.53;;;3.97;73.56
16664;BME280;8445;51.270;9.434;2023-02-11T07:17:02;101070.81;;;4.02;74.03
16664;BME280;8445;51.270;9.434;2023-02-11T07:19:29;101070.69;;;4.08;74.04
16664;BME280;8445;51.270;9.434;2023-02-11T07:21:54;101063.53;;;4.13;73.63
16664;BME280;8445;51.270;9.434;2023-02-11T07:24:20;101058.25;;;4.16;73.78
16664;BME280;8445;51.270;9.434;2023-02-11T07:26:45;101069.56;;;4.18;73.46
16664;BME280;8445;51.270;9.434;2023-02-11T07:29:11;101073.88;;;4.19;73.48
16664;BME280;8445;51.270;9.434;2023-02-11T07:31:36;101084.31;;;4.22;73.73
16664;BME280;8445;51.270;9.434;2023-02-11T07:34:02;101080.66;;;4.29;73.48
16664;BME280;8445;51.270;9.434;2023-02-11T07:36:29;101084.09;;;4.33;73.64
16664;BME280;8445;51.270;9.434;2023-02-11T07:38:56;101084.94;;;4.34;73.31
16664;BME280;8445;51.270;9.434;2023-02-11T07:41:24;101087.56;;;4.34;73.38
16664;BME280;8445;51.270;9.434;2023-02-11T07:43:50;101083.13;;;4.36;73.17
16664;BME280;8445;51.270;9.434;2023-02-11T07:46:23;101077.88;;;4.37;73.86
16664;BME280;8445;51.270;9.434;2023-02-11T07:48:50;101085.75;;;4.37;73.96
16664;BME280;8445;51.270;9.434;2023-02-11T07:51:27;101091.81;;;4.38;73.94
16664;BME280;8445;51.270;9.434;2023-02-11T07:53:54;101084.84;;;4.38;73.92
16664;BME280;8445;51.270;9.434;2023-02-11T07:56:21;101084.78;;;4.40;74.16
16664;BME280;8445;51.270;9.434;2023-02-11T07:58:47;101092.53;;;4.46;74.24
16664;BME280;8445;51.270;9.434;2023-02-11T08:01:18;101089.81;;;4.49;74.29
16664;BME280;8445;51.270;9.434;2023-02-11T08:03:44;101103.75;;;4.51;74.13
16664;BME280;8445;51.270;9.434;2023-02-11T08:06:12;101090.59;;;4.54;73.92
16664;BME280;8445;51.270;9.434;2023-02-11T08:08:39;101107.97;;;4.58;73.98
16664;BME280;8445;51.270;9.434;2023-02-11T08:11:09;101088.75;;;4.58;74.03
16664;BME280;8445;51.270;9.434;2023-02-11T08:13:35;101094.75;;;4.63;74.25
16664;BME280;8445;51.270;9.434;2023-02-11T08:16:00;101096.38;;;4.67;74.21
16664;BME280;8445;51.270;9.434;2023-02-11T08:18:26;101102.44;;;4.71;74.24
16664;BME280;8445;51.270;9.434;2023-02-11T08:20:51;101098.88;;;4.72;74.20
16664;BME280;8445;51.270;9.434;2023-02-11T08:23:17;101103.06;;;4.81;74.29
16664;BME280;8445;51.270;9.434;2023-02-11T08:25:43;101101.97;;;4.89;74.59
16664;BME280;8445;51.270;9.434;2023-02-11T08:28:08;101112.25;;;4.99;74.61
16664;BME280;8445;51.270;9.434;2023-02-11T08:30:34;101115.53;;;5.07;74.57
16664;BME280;8445;51.270;9.434;2023-02-11T08:33:00;101113.69;;;5.11;74.45
16664;BME280;8445;51.270;9.434;2023-02-11T08:35:25;101107.59;;;5.10;74.51
16664;BME280;8445;51.270;9.434;2023-02-11T08:37:51;101110.06;;;5.16;74.58
16664;BME280;8445;51.270;9.434;2023-02-11T08:40:17;101113.50;;;5.18;74.45
16664;BME280;8445;51.270;9.434;2023-02-11T08:42:43;101109.97;;;5.19;74.41
16664;BME280;8445;51.270;9.434;2023-02-11T08:45:08;101117.84;;;5.19;74.27
16664;BME280;8445;51.270;9.434;2023-02-11T08:47:35;101111.72;;;5.19;74.32
16664;BME280;8445;51.270;9.434;2023-02-11T08:50:01;101122.22;;;5.21;74.20
16664;BME280;8445;51.270;9.434;2023-02-11T08:52:27;101123.84;;;5.25;74.30
16664;BME280;8445;51.270;9.434;2023-02-11T08:54:52;101124.75;;;5.24;74.44
16664;BME280;8445;51.270;9.434;2023-02-11T08:57:18;101125.56;;;5.26;74.57
16664;BME280;8445;51.270;9.434;2023-02-11T08:59:43;101116.63;;;5.33;74.51
16664;BME280;8445;51.270;9.434;2023-02-11T09:02:12;101121.00;;;5.32;74.66
16664;BME280;8445;51.270;9.434;2023-02-11T09:04:38;101120.84;;;5.39;74.77
16664;BME280;8445;51.270;9.434;2023-02-11T09:07:04;101120.69;;;5.45;74.79
16664;BME280;8445;51.270;9.434;2023-02-11T09:09:29;101118.50;;;5.61;75.37
16664;BME280;8445;51.270;9.434;2023-02-11T09:11:55;101124.03;;;5.83;75.77
16664;BME280;8445;51.270;9.434;2023-02-11T09:14:23;101120.78;;;6.06;75.93
16664;BME280;8445;51.270;9.434;2023-02-11T09:16:49;101134.91;;;6.32;75.54
16664;BME280;8445;51.270;9.434;2023-02-11T09:19:16;101135.25;;;6.50;74.87
16664;BME280;8445;51.270;9.434;2023-02-11T09:21:42;101137.84;;;6.51;73.89
16664;BME280;8445;51.270;9.434;2023-02-11T09:24:08;101137.78;;;6.53;74.08
16664;BME280;8445;51.270;9.434;2023-02-11T09:26:34;101139.84;;;6.72;75.33
16664;BME280;8445;51.270;9.434;2023-02-11T09:29:01;101127.88;;;6.90;75.35
16664;BME280;8445;51.270;9.434;2023-02-11T09:31:29;101121.25;;;7.05;75.71
16664;BME280;8445;51.270;9.434;2023-02-11T09:34:00;101118.00;;;7.23;75.51
16664;BME280;8445;51.270;9.434;2023-02-11T09:36:29;101113.00;;;7.41;75.46
16664;BME280;8445;51.270;9.434;2023-02-11T09:38:58;101109.94;;;7.53;75.35
16664;BME280;8445;51.270;9.434;2023-02-11T09:41:53;101111.47;;;7.61;72.63
16664;BME280;8445;51.270;9.434;2023-02-11T09:44:26;101111.91;;;7.72;74.81
16664;BME280;8445;51.270;9.434;2023-02-11T09:46:55;101117.53;;;7.86;74.89
16664;BME280;8445;51.270;9.434;2023-02-11T09:52:12;101118.25;;;8.15;75.19
16664;BME280;8445;51.270;9.434;2023-02-11T09:54:52;101108.50;;;8.18;74.84
16664;BME280;8445;51.270;9.434;2023-02-11T09:57:18;101122.16;;;8.27;74.64
16664;BME280;8445;51.270;9.434;2023-02-11T09:59:44;101115.44;;;8.42;75.75
16664;BME280;8445;51.270;9.434;2023-02-11T10:02:21;101117.00;;;8.48;73.99
16664;BME280;8445;51.270;9.434;2023-02-11T10:07:25;101116.31;;;8.43;73.10
16664;BME280;8445;51.270;9.434;2023-02-11T10:12:41;101118.44;;;8.57;74.15
16664;BME280;8445;51.270;9.434;2023-02-11T10:15:35;101112.44;;;8.75;73.62
16664;BME280;8445;51.270;9.434;2023-02-11T10:21:14;101125.53;;;8.99;73.26
16664;BME280;8445;51.270;9.434;2023-02-11T10:23:46;101135.44;;;9.15;74.08
16664;BME280;8445;51.270;9.434;2023-02-11T10:26:15;101141.56;;;9.38;73.96
16664;BME280;8445;51.270;9.434;2023-02-11T10:28:43;101144.03;;;9.61;74.57
16664;BME280;8445;51.270;9.434;2023-02-11T10:31:17;101144.28;;;9.76;73.83
16664;BME280;8445;51.270;9.434;2023-02-11T10:33:49;101144.22;;;9.77;73.67
16664;BME280;8445;51.270;9.434;2023-02-11T10:36:17;101151.84;;;9.64;72.26
16664;BME280;8445;51.270;9.434;2023-02-11T10:38:43;101153.91;;;9.58;71.90
16664;BME280;8445;51.270;9.434;2023-02-11T10:41:25;101159.88;;;9.61;72.83
16664;BME280;8445;51.270;9.434;2023-02-11T10:43:52;101175.63;;;9.64;73.02
16664;BME280;8445;51.270;9.434;2023-02-11T10:46:21;101163.72;;;9.54;71.61
16664;BME280;8445;51.270;9.434;2023-02-11T10:48:50;101153.75;;;9.40;71.78
16664;BME280;8445;51.270;9.434;2023-02-11T10:54:31;101148.66;;;9.15;72.12
16664;BME280;8445;51.270;9.434;2023-02-11T10:56:39;101159.59;;;9.05;72.10
16664;BME280;8445;51.270;9.434;2023-02-11T11:01:56;101169.09;;;9.10;73.37
16664;BME280;8445;51.270;9.434;2023-02-11T11:09:48;101169.09;;;9.10;73.12
16664;BME280;8445;51.270;9.434;2023-02-11T11:12:31;101150.00;;;9.25;72.86
16664;BME280;8445;51.270;9.434;2023-02-11T11:15:20;101158.81;;;9.45;72.94
16664;BME280;8445;51.270;9.434;2023-02-11T11:17:47;101158.91;;;9.64;73.20
16664;BME280;8445;51.270;9.434;2023-02-11T11:20:33;101153.59;;;9.85;72.25
16664;BME280;8445;51.270;9.434;2023-02-11T11:23:17;101152.25;;;9.95;70.91
16664;BME280;8445;51.270;9.434;2023-02-11T11:25:59;101158.47;;;9.94;70.15
16664;BME280;8445;51.270;9.434;2023-02-11T11:28:26;101157.03;;;9.87;71.42
16664;BME280;8445;51.270;9.434;2023-02-11T11:30:54;101153.38;;;9.70;71.78
16664;BME280;8445;51.270;9.434;2023-02-11T11:33:27;101158.50;;;9.73;71.26
16664;BME280;8445;51.270;9.434;2023-02-11T11:36:06;101152.81;;;9.83;72.50
16664;BME280;8445;51.270;9.434;2023-02-11T11:38:35;101158.56;;;9.92;71.90
16664;BME280;8445;51.270;9.434;2023-02-11T11:44:24;101158.91;;;10.04;68.80
16664;BME280;8445;51.270;9.434;2023-02-11T11:46:52;101154.22;;;10.11;71.50
16664;BME280;8445;51.270;9.434;2023-02-11T11:49:33;101149.56;;;10.16;71.05
16664;BME280;8445;51.270;9.434;2023-02-11T11:54:54;101139.56;;;10.22;71.09
16664;BME280;8445;51.270;9.434;2023-02-11T11:57:25;101132.97;;;10.31;71.26
16664;BME280;8445;51.270;9.434;2023-02-11T11:59:53;101138.84;;;10.38;70.43
16664;BME280;8445;51.270;9.434;2023-02-11T12:02:38;101134.63;;;10.34;68.61
16664;BME280;8445;51.270;9.434;2023-02-11T12:05:17;101142.06;;;10.26;70.05
16664;BME280;8445;51.270;9.434;2023-02-11T12:13:23;101132.56;;;10.02;70.47
16664;BME280;8445;51.270;9.434;2023-02-11T12:24:23;101132.56;;;9.42;68.25
16664;BME280;8445;51.270;9.434;2023-02-11T12:26:56;101134.19;;;9.24;69.05
16664;BME280;8445;51.270;9.434;2023-02-11T12:29:33;101137.88;;;9.19;70.07
16664;BME280;8445;51.270;9.434;2023-02-11T12:32:19;101132.94;;;9.12;69.99
16664;BME280;8445;51.270;9.434;2023-02-11T12:37:31;101125.41;;;9.02;69.79
16664;BME280;8445;51.270;9.434;2023-02-11T12:42:37;101123.94;;;8.95;69.17
16664;BME280;8445;51.270;9.434;2023-02-11T12:51:11;101136.63;;;9.08;70.45
16664;BME280;8445;51.270;9.434;2023-02-11T12:54:00;101123.56;;;9.04;69.28
16664;BME280;8445;51.270;9.434;2023-02-11T13:05:44;101116.56;;;9.66;69.03
16664;BME280;8445;51.270;9.434;2023-02-11T13:08:18;101112.03;;;9.88;66.50
16664;BME280;8445;51.270;9.434;2023-02-11T13:10:53;101114.19;;;9.59;68.12
16664;BME280;8445;51.270;9.434;2023-02-11T13:13:48;101118.63;;;9.59;68.25
16664;BME280;8445;51.270;9.434;2023-02-11T13:16:32;101117.91;;;9.74;67.82
16664;BME280;8445;51.270;9.434;2023-02-11T13:25:15;101114.47;;;9.93;67.53
16664;BME280;8445;51.270;9.434;2023-02-11T13:27:53;101118.13;;;9.70;68.04
16664;BME280;8445;51.270;9.434;2023-02-11T13:30:31;101117.91;;;9.74;66.41
16664;BME280;8445;51.270;9.434;2023-02-11T13:35:28;101111.09;;;9.89;66.96
16664;BME280;8445;51.270;9.434;2023-02-11T13:37:55;101114.78;;;9.66;67.27
16664;BME280;8445;51.270;9.434;2023-02-11T13:40:23;101120.13;;;9.44;67.10
16664;BME280;8445;51.270;9.434;2023-02-11T13:42:52;101115.53;;;9.28;67.72
16664;BME280;8445;51.270;9.434;2023-02-11T13:47:57;101116.03;;;9.16;67.93
16664;BME280;8445;51.270;9.434;2023-02-11T13:50:24;101116.16;;;9.13;67.83
16664;BME280;8445;51.270;9.434;2023-02-11T13:53:01;101117.81;;;9.15;68.24
16664;BME280;8445;51.270;9.434;2023-02-11T13:55:29;101122.03;;;9.19;68.35
16664;BME280;8445;51.270;9.434;2023-02-11T14:11:50;101107.00;;;9.01;68.24
16664;BME280;8445;51.270;9.434;2023-02-11T14:24:45;101131.13;;;8.92;68.05
16664;BME280;8445;51.270;9.434;2023-02-11T14:27:20;101125.16;;;8.86;67.75
16664;BME280;8445;51.270;9.434;2023-02-11T14:32:41;101128.25;;;8.75;67.70
16664;BME280;8445;51.270;9.434;2023-02-11T14:41:31;101133.22;;;8.61;67.85
16664;BME280;8445;51.270;9.434;2023-02-11T14:44:03;101142.97;;;8.59;68.37
16664;BME280;8445;51.270;9.434;2023-02-11T14:46:31;101138.63;;;8.58;68.32
16664;BME280;8445;51.270;9.434;2023-02-11T14:49:00;101139.53;;;8.57;68.22
16664;BME280;8445;51.270;9.434;2023-02-11T14:51:28;101138.81;;;8.53;67.86
16664;BME280;8445;51.270;9.434;2023-02-11T14:57:13;101149.69;;;8.44;68.03
16664;BME280;8445;51.270;9.434;2023-02-11T14:59:50;101158.06;;;8.31;68.27
16664;BME280;8445;51.270;9.434;2023-02-11T15:02:24;101165.47;;;8.22;68.12
16664;BME280;8445;51.270;9.434;2023-02-11T15:04:51;101160.41;;;8.15;68.00
16664;BME280;8445;51.270;9.434;2023-02-11T15:07:16;101163.16;;;8.12;68.21
16664;BME280;8445;51.270;9.434;2023-02-11T15:09:50;101168.38;;;8.14;68.07
16664;BME280;8445;51.270;9.434;2023-02-11T15:12:25;101160.47;;;8.14;68.19
16664;BME280;8445;51.270;9.434;2023-02-11T15:14:54;101166.59;;;8.14;68.26
16664;BME280;8445;51.270;9.434;2023-02-11T15:17:25;101167.41;;;8.16;68.34
16664;BME280;8445;51.270;9.434;2023-02-11T15:19:54;101162.13;;;8.16;68.15
16664;BME280;8445;51.270;9.434;2023-02-11T15:22:26;101178.06;;;8.13;68.07
16664;BME280;8445;51.270;9.434;2023-02-11T15:25:01;101171.91;;;8.13;68.20
16664;BME280;8445;51.270;9.434;2023-02-11T15:27:38;101176.34;;;8.12;68.00
16664;BME280;8445;51.270;9.434;2023-02-11T15:30:22;101174.72;;;8.08;68.44
16664;BME280;8445;51.270;9.434;2023-02-11T15:32:54;101177.53;;;8.04;68.21
16664;BME280;8445;51.270;9.434;2023-02-11T15:35:27;101175.91;;;7.99;68.22
16664;BME280;8445;51.270;9.434;2023-02-11T15:37:55;101183.88;;;7.98;68.39
16664;BME280;8445;51.270;9.434;2023-02-11T15:40:27;101189.25;;;7.95;68.03
16664;BME280;8445;51.270;9.434;2023-02-11T15:48:15;101191.81;;;7.72;68.98
16664;BME280;8445;51.270;9.434;2023-02-11T15:50:48;101191.75;;;7.74;68.74